createdAt,value
2022-11-29T00:00:36.495Z,81.64
2022-11-29T00:01:39.602Z,81.70
2022-11-29T00:02:41.090Z,81.62
2022-11-29T00:03:42.647Z,81.17
2022-11-29T00:04:44.721Z,81.48
2022-11-29T00:05:46.374Z,81.51
2022-11-29T00:06:48.197Z,81.47
2022-11-29T00:07:49.697Z,81.22
2022-11-29T00:08:51.117Z,81.17
2022-11-29T00:09:52.527Z,80.79
2022-11-29T00:10:53.932Z,81.13
2022-11-29T00:12:13.557Z,80.76
2022-11-29T00:13:15.099Z,80.35
2022-11-29T00:14:19.090Z,80.54
2022-11-29T00:15:20.568Z,80.73
2022-11-29T00:16:22.072Z,80.53
2022-11-29T00:17:23.555Z,80.40
2022-11-29T00:18:24.956Z,80.96
2022-11-29T00:19:26.435Z,81.72
2022-11-29T00:20:27.891Z,81.60
2022-11-29T00:21:29.758Z,81.40
2022-11-29T00:22:31.167Z,81.47
2022-11-29T00:23:32.740Z,81.25
2022-11-29T00:24:34.631Z,81.67
2022-11-29T00:25:38.316Z,82.26
2022-11-29T00:26:40.263Z,82.20
2022-11-29T00:27:41.683Z,81.63
2022-11-29T00:28:43.151Z,81.80
2022-11-29T00:29:44.585Z,81.63
2022-11-29T00:30:46.399Z,81.57
2022-11-29T00:31:47.976Z,81.58
2022-11-29T00:32:49.390Z,81.79
2022-11-29T00:33:51.667Z,81.30
2022-11-29T00:34:53.158Z,81.13
2022-11-29T00:35:54.907Z,81.41
2022-11-29T00:36:56.377Z,81.19
2022-11-29T00:37:57.898Z,81.58
2022-11-29T00:38:59.407Z,81.34
2022-11-29T00:40:00.803Z,80.79
2022-11-29T00:41:02.616Z,81.10
2022-11-29T00:42:04.204Z,81.28
2022-11-29T00:43:05.694Z,81.32
2022-11-29T00:44:07.386Z,81.24
2022-11-29T00:45:09.476Z,81.00
2022-11-29T00:46:11.794Z,81.05
2022-11-29T00:47:13.315Z,81.36
2022-11-29T00:48:14.787Z,81.06
2022-11-29T00:49:16.585Z,80.95
2022-11-29T00:50:18.076Z,81.09
2022-11-29T00:51:19.900Z,81.12
2022-11-29T00:52:21.336Z,80.94
2022-11-29T00:53:22.858Z,81.21
2022-11-29T00:54:24.383Z,81.77
2022-11-29T00:55:25.861Z,81.37
2022-11-29T00:56:27.722Z,81.43
2022-11-29T00:57:29.152Z,81.68
2022-11-29T00:58:30.924Z,81.36
2022-11-29T00:59:32.324Z,81.46
2022-11-29T01:00:34.087Z,81.58
2022-11-29T01:01:35.669Z,81.41
2022-11-29T01:02:37.191Z,81.21
2022-11-29T01:03:38.941Z,81.64
2022-11-29T01:04:40.421Z,81.34
2022-11-29T01:05:43.497Z,81.24
2022-11-29T01:06:45.049Z,80.90
2022-11-29T01:07:46.634Z,81.28
2022-11-29T01:08:48.247Z,80.89
2022-11-29T01:09:49.729Z,80.70
2022-11-29T01:11:01.831Z,80.58
2022-11-29T01:12:03.417Z,79.97
2022-11-29T01:13:05.251Z,80.10
2022-11-29T01:14:06.912Z,80.28
2022-11-29T01:15:09.369Z,79.97
2022-11-29T01:16:11.945Z,80.38
2022-11-29T01:17:13.518Z,80.45
2022-11-29T01:18:15.506Z,80.55
2022-11-29T01:19:16.896Z,80.81
2022-11-29T01:20:18.320Z,80.82
2022-11-29T01:21:23.339Z,81.19
2022-11-29T01:22:24.807Z,81.28
2022-11-29T01:23:27.252Z,80.86
2022-11-29T01:24:30.504Z,80.68
2022-11-29T01:25:32.548Z,80.79
2022-11-29T01:26:33.989Z,80.70
2022-11-29T01:27:35.507Z,80.89
2022-11-29T01:28:38.072Z,80.85
2022-11-29T01:29:39.570Z,81.01
2022-11-29T01:30:41.325Z,81.34
2022-11-29T01:31:42.862Z,81.11
2022-11-29T01:32:44.391Z,80.49
2022-11-29T01:33:46.101Z,80.33
2022-11-29T01:34:47.552Z,80.04
2022-11-29T01:35:54.666Z,80.45
2022-11-29T01:36:56.110Z,80.30
2022-11-29T01:37:57.530Z,80.33
2022-11-29T01:39:00.899Z,80.46
2022-11-29T01:40:02.464Z,80.32
2022-11-29T01:41:08.074Z,80.37
2022-11-29T01:42:13.755Z,80.60
2022-11-29T01:43:17.337Z,80.31
2022-11-29T01:44:18.708Z,80.50
2022-11-29T01:45:24.508Z,80.25
2022-11-29T01:46:28.181Z,80.79
2022-11-29T01:47:30.666Z,80.38
2022-11-29T01:48:32.745Z,80.73
2022-11-29T01:49:38.322Z,80.12
2022-11-29T01:50:41.110Z,80.65
2022-11-29T01:51:49.873Z,80.53
2022-11-29T01:52:51.662Z,80.62
2022-11-29T01:53:54.287Z,80.33
2022-11-29T01:55:00.319Z,80.66
2022-11-29T01:56:05.592Z,80.50
2022-11-29T01:57:08.750Z,80.46
2022-11-29T01:58:10.293Z,80.25
2022-11-29T01:59:15.758Z,80.48
2022-11-29T02:00:19.325Z,80.80
2022-11-29T02:01:20.865Z,80.57
2022-11-29T02:02:30.469Z,80.36
2022-11-29T02:03:32.316Z,80.47
2022-11-29T02:04:35.641Z,80.40
2022-11-29T02:05:40.744Z,80.36
2022-11-29T02:06:43.120Z,80.52
2022-11-29T02:07:48.695Z,80.37
2022-11-29T02:08:50.218Z,80.68
2022-11-29T02:09:51.672Z,80.53
2022-11-29T02:10:55.993Z,80.50
2022-11-29T02:12:39.224Z,80.25
2022-11-29T02:14:00.263Z,80.51
2022-11-29T02:15:24.578Z,80.20
2022-11-29T02:16:56.404Z,79.99
2022-11-29T02:18:17.773Z,80.13
2022-11-29T02:19:55.042Z,79.74
2022-11-29T02:21:19.785Z,80.23
2022-11-29T02:22:42.929Z,80.66
2022-11-29T02:24:08.872Z,80.61
2022-11-29T02:25:41.455Z,80.54
2022-11-29T02:26:54.942Z,80.60
2022-11-29T02:28:12.009Z,80.42
2022-11-29T02:29:37.574Z,80.33
2022-11-29T02:30:44.735Z,80.46
2022-11-29T02:32:23.770Z,80.46
2022-11-29T02:33:28.204Z,80.25
2022-11-29T02:35:02.570Z,80.65
2022-11-29T02:36:31.461Z,80.80
2022-11-29T02:38:01.001Z,80.56
2022-11-29T02:39:25.084Z,80.53
2022-11-29T02:40:54.736Z,80.56
2022-11-29T02:42:28.428Z,80.31
2022-11-29T02:43:57.854Z,80.78
2022-11-29T02:45:12.126Z,80.81
2022-11-29T02:46:53.633Z,80.28
2022-11-29T02:48:10.852Z,80.39
2022-11-29T02:49:35.196Z,80.39
2022-11-29T02:50:54.968Z,80.13
2022-11-29T02:52:07.855Z,80.60
2022-11-29T02:53:27.425Z,80.03
2022-11-29T02:54:47.271Z,79.99
2022-11-29T02:56:07.421Z,80.09
2022-11-29T02:57:26.118Z,80.02
2022-11-29T02:58:55.491Z,80.04
2022-11-29T03:00:06.568Z,80.20
2022-11-29T03:01:31.848Z,80.40
2022-11-29T03:02:43.250Z,80.27
2022-11-29T03:03:54.815Z,80.28
2022-11-29T03:05:20.123Z,80.28
2022-11-29T03:06:27.193Z,80.37
2022-11-29T03:07:37.826Z,80.20
2022-11-29T03:08:56.059Z,80.00
2022-11-29T03:10:06.343Z,80.33
2022-11-29T03:11:45.163Z,80.25
2022-11-29T03:12:49.931Z,80.31
2022-11-29T03:14:24.083Z,80.70
2022-11-29T03:15:41.449Z,80.65
2022-11-29T03:16:59.004Z,80.86
2022-11-29T03:18:19.300Z,80.86
2022-11-29T03:19:29.756Z,80.80
2022-11-29T03:20:43.876Z,80.70
2022-11-29T03:21:55.429Z,80.38
2022-11-29T03:23:10.314Z,80.58
2022-11-29T03:24:23.554Z,80.79
2022-11-29T03:25:41.470Z,80.92
2022-11-29T03:26:49.345Z,81.02
2022-11-29T03:27:56.082Z,80.79
2022-11-29T03:29:12.316Z,80.76
2022-11-29T03:30:17.064Z,80.62
2022-11-29T03:31:29.581Z,80.93
2022-11-29T03:32:50.240Z,80.88
2022-11-29T03:33:56.053Z,81.04
2022-11-29T03:35:16.872Z,80.82
2022-11-29T03:36:53.024Z,80.11
2022-11-29T03:38:04.106Z,80.99
2022-11-29T03:39:11.057Z,80.15
2022-11-29T03:40:24.412Z,80.09
2022-11-29T03:41:38.124Z,80.08
2022-11-29T03:42:51.622Z,80.22
2022-11-29T03:44:24.038Z,80.04
2022-11-29T03:45:37.051Z,80.27
2022-11-29T03:46:54.573Z,80.62
2022-11-29T03:48:10.786Z,80.38
2022-11-29T03:49:21.812Z,80.34
2022-11-29T03:50:37.943Z,80.57
2022-11-29T03:52:03.963Z,80.49
2022-11-29T03:53:20.576Z,80.57
2022-11-29T03:54:43.505Z,80.48
2022-11-29T03:55:58.696Z,80.86
2022-11-29T03:57:00.562Z,80.85
2022-11-29T03:58:08.351Z,81.03
2022-11-29T03:59:58.072Z,80.98
2022-11-29T04:01:21.172Z,80.64
2022-11-29T04:02:47.704Z,80.79
2022-11-29T04:04:26.730Z,80.93
2022-11-29T04:05:58.693Z,80.67
2022-11-29T04:07:27.805Z,80.68
2022-11-29T04:08:44.821Z,80.85
2022-11-29T04:09:46.383Z,80.50
2022-11-29T04:11:05.425Z,80.40
2022-11-29T04:12:32.220Z,80.20
2022-11-29T04:13:52.471Z,80.79
2022-11-29T04:15:15.465Z,80.18
2022-11-29T04:16:46.041Z,80.48
2022-11-29T04:18:20.433Z,80.52
2022-11-29T04:19:34.554Z,80.84
2022-11-29T04:20:51.206Z,80.81
2022-11-29T04:22:15.845Z,81.05
2022-11-29T04:23:52.974Z,81.41
2022-11-29T04:25:13.933Z,80.84
2022-11-29T04:26:43.373Z,81.13
2022-11-29T04:28:19.862Z,81.13
2022-11-29T04:29:32.000Z,80.90
2022-11-29T04:30:42.930Z,80.60
2022-11-29T04:32:14.436Z,80.57
2022-11-29T04:33:40.700Z,80.98
2022-11-29T04:34:59.287Z,81.30
2022-11-29T04:36:26.700Z,81.02
2022-11-29T04:37:43.269Z,81.12
2022-11-29T04:38:54.025Z,81.60
2022-11-29T04:40:16.837Z,81.37
2022-11-29T04:42:00.313Z,81.36
2022-11-29T04:43:15.269Z,81.76
2022-11-29T04:44:47.723Z,81.97
2022-11-29T04:46:11.814Z,81.56
2022-11-29T04:47:51.997Z,81.43
2022-11-29T04:49:23.566Z,81.57
2022-11-29T04:50:25.082Z,81.88
2022-11-29T04:51:48.258Z,81.21
2022-11-29T04:53:01.773Z,81.24
2022-11-29T04:54:31.184Z,81.34
2022-11-29T04:55:49.605Z,81.02
2022-11-29T04:56:58.473Z,80.96
2022-11-29T04:58:33.856Z,80.71
2022-11-29T04:59:51.966Z,81.13
2022-11-29T05:01:15.260Z,81.14
2022-11-29T05:02:40.899Z,81.05
2022-11-29T05:03:56.878Z,81.26
2022-11-29T05:05:21.566Z,81.06
2022-11-29T05:07:02.977Z,81.42
2022-11-29T05:08:23.702Z,81.30
2022-11-29T05:10:00.890Z,81.60
2022-11-29T05:11:31.924Z,81.47
2022-11-29T05:12:53.543Z,81.68
2022-11-29T05:14:32.572Z,81.32
2022-11-29T05:15:49.224Z,81.53
2022-11-29T05:17:01.440Z,81.81
2022-11-29T05:18:15.838Z,81.66
2022-11-29T05:19:28.785Z,81.36
2022-11-29T05:20:55.142Z,81.37
2022-11-29T05:22:12.879Z,81.30
2022-11-29T05:23:45.026Z,81.04
2022-11-29T05:24:54.162Z,81.45
2022-11-29T05:26:04.681Z,81.72
2022-11-29T05:27:43.674Z,81.71
2022-11-29T05:28:48.156Z,81.82
2022-11-29T05:30:05.014Z,81.62
2022-11-29T05:31:18.569Z,81.33
2022-11-29T05:32:47.444Z,81.26
2022-11-29T05:34:15.838Z,81.64
2022-11-29T05:35:39.123Z,81.75
2022-11-29T05:36:54.606Z,81.48
2022-11-29T05:38:32.345Z,81.63
2022-11-29T05:39:46.322Z,81.61
2022-11-29T05:40:59.929Z,81.84
2022-11-29T05:42:10.420Z,81.79
2022-11-29T05:43:23.324Z,82.05
2022-11-29T05:44:34.746Z,81.70
2022-11-29T05:45:48.169Z,81.81
2022-11-29T05:46:57.263Z,81.74
2022-11-29T05:48:07.574Z,81.72
2022-11-29T05:49:37.623Z,81.61
2022-11-29T05:51:33.736Z,81.77
2022-11-29T05:52:59.377Z,81.95
2022-11-29T05:54:15.871Z,81.53
2022-11-29T05:55:27.223Z,81.81
2022-11-29T05:57:06.306Z,81.97
2022-11-29T05:58:17.592Z,82.03
2022-11-29T05:59:23.740Z,81.89
2022-11-29T06:00:30.641Z,81.96
2022-11-29T06:02:00.533Z,81.68
2022-11-29T06:03:23.769Z,82.27
2022-11-29T06:04:42.935Z,81.73
2022-11-29T06:05:51.738Z,81.86
2022-11-29T06:07:03.103Z,81.73
2022-11-29T06:08:25.617Z,81.57
2022-11-29T06:09:32.537Z,81.99
2022-11-29T06:10:42.058Z,82.01
2022-11-29T06:11:52.781Z,81.97
2022-11-29T06:13:32.034Z,82.10
2022-11-29T06:14:49.082Z,82.17
2022-11-29T06:16:18.313Z,82.42
2022-11-29T06:17:38.842Z,82.13
2022-11-29T06:18:48.408Z,82.18
2022-11-29T06:20:23.671Z,82.12
2022-11-29T06:21:45.109Z,82.45
2022-11-29T06:22:55.874Z,82.18
2022-11-29T06:24:26.372Z,82.81
2022-11-29T06:25:39.279Z,82.02
2022-11-29T06:27:29.012Z,82.23
2022-11-29T06:28:47.527Z,82.12
2022-11-29T06:29:59.779Z,82.18
2022-11-29T06:31:25.341Z,82.31
2022-11-29T06:32:52.124Z,81.95
2022-11-29T06:34:10.146Z,82.26
2022-11-29T06:35:35.450Z,82.42
2022-11-29T06:36:57.051Z,82.36
2022-11-29T06:38:01.545Z,82.39
2022-11-29T06:39:03.634Z,82.39
2022-11-29T06:40:09.957Z,82.00
2022-11-29T06:41:29.859Z,82.43
2022-11-29T06:42:31.354Z,82.20
2022-11-29T06:43:33.649Z,82.04
2022-11-29T06:44:35.709Z,82.10
2022-11-29T06:45:37.537Z,81.85
2022-11-29T06:46:51.606Z,81.81
2022-11-29T06:47:59.852Z,82.22
2022-11-29T06:49:25.861Z,81.82
2022-11-29T06:50:36.208Z,81.83
2022-11-29T06:51:47.419Z,81.88
2022-11-29T06:53:14.842Z,82.35
2022-11-29T06:54:34.795Z,82.29
2022-11-29T06:56:03.528Z,82.70
2022-11-29T06:57:25.286Z,83.17
2022-11-29T06:58:40.930Z,82.91
2022-11-29T06:59:48.480Z,83.50
2022-11-29T07:01:01.962Z,82.84
2022-11-29T07:02:21.984Z,82.99
2022-11-29T07:03:48.314Z,82.70
2022-11-29T07:05:24.511Z,82.16
2022-11-29T07:06:28.353Z,82.25
2022-11-29T07:07:30.311Z,82.39
2022-11-29T07:08:32.030Z,82.75
2022-11-29T07:09:35.483Z,82.24
2022-11-29T07:10:39.383Z,82.07
2022-11-29T07:11:41.546Z,81.94
2022-11-29T07:12:44.588Z,82.65
2022-11-29T07:13:46.073Z,82.43
2022-11-29T07:14:47.965Z,82.09
2022-11-29T07:16:07.960Z,82.36
2022-11-29T07:17:55.401Z,81.97
2022-11-29T07:19:21.729Z,81.97
2022-11-29T07:20:26.250Z,82.07
2022-11-29T07:21:48.446Z,82.21
2022-11-29T07:23:26.937Z,81.95
2022-11-29T07:24:55.752Z,82.12
2022-11-29T07:26:03.205Z,82.19
2022-11-29T07:27:23.090Z,82.26
2022-11-29T07:28:46.454Z,82.18
2022-11-29T07:30:09.617Z,81.87
2022-11-29T07:31:25.427Z,82.23
2022-11-29T07:32:55.924Z,81.90
2022-11-29T07:34:16.304Z,82.07
2022-11-29T07:35:29.274Z,81.98
2022-11-29T07:36:40.038Z,82.10
2022-11-29T07:37:53.383Z,82.02
2022-11-29T07:39:12.846Z,82.25
2022-11-29T07:41:00.879Z,81.89
2022-11-29T07:42:32.882Z,82.05
2022-11-29T07:43:59.744Z,81.72
2022-11-29T07:45:19.618Z,81.95
2022-11-29T07:46:21.188Z,81.88
2022-11-29T07:47:22.648Z,81.86
2022-11-29T07:48:24.246Z,82.17
2022-11-29T07:49:25.697Z,82.30
2022-11-29T07:50:28.367Z,82.12
2022-11-29T07:51:31.298Z,82.23
2022-11-29T07:52:33.526Z,81.71
2022-11-29T07:53:41.053Z,81.80
2022-11-29T07:54:42.746Z,82.05
2022-11-29T07:55:45.185Z,82.36
2022-11-29T07:56:46.885Z,82.33
2022-11-29T07:57:49.356Z,82.42
2022-11-29T07:58:50.862Z,82.02
2022-11-29T07:59:52.318Z,82.49
2022-11-29T08:00:54.168Z,82.43
2022-11-29T08:01:55.638Z,81.91
2022-11-29T08:02:57.130Z,82.29
2022-11-29T08:03:58.653Z,82.08
2022-11-29T08:05:01.707Z,81.82
2022-11-29T08:06:03.757Z,82.28
2022-11-29T08:07:05.158Z,81.80
2022-11-29T08:08:09.912Z,82.24
2022-11-29T08:09:11.408Z,82.34
2022-11-29T08:10:15.302Z,81.94
2022-11-29T08:11:16.717Z,82.60
2022-11-29T08:12:18.206Z,82.45
2022-11-29T08:13:21.213Z,82.03
2022-11-29T08:14:22.591Z,82.19
2022-11-29T08:15:25.208Z,82.04
2022-11-29T08:16:26.959Z,82.62
2022-11-29T08:17:28.651Z,82.17
2022-11-29T08:18:30.086Z,82.49
2022-11-29T08:19:31.528Z,82.67
2022-11-29T08:20:33.387Z,82.43
2022-11-29T08:21:34.801Z,82.25
2022-11-29T08:22:36.632Z,82.16
2022-11-29T08:23:38.080Z,82.27
2022-11-29T08:24:39.559Z,82.12
2022-11-29T08:25:41.382Z,81.96
2022-11-29T08:26:42.812Z,81.66
2022-11-29T08:27:44.222Z,81.91
2022-11-29T08:28:46.158Z,81.67
2022-11-29T08:29:47.554Z,82.05
2022-11-29T08:30:49.012Z,81.70
2022-11-29T08:31:53.358Z,82.01
2022-11-29T08:32:55.175Z,81.84
2022-11-29T08:33:56.726Z,82.13
2022-11-29T08:34:58.363Z,82.08
2022-11-29T08:36:08.511Z,82.11
2022-11-29T08:37:09.946Z,82.00
2022-11-29T08:38:11.395Z,82.22
2022-11-29T08:39:12.889Z,81.86
2022-11-29T08:40:15.447Z,81.98
2022-11-29T08:41:17.422Z,82.05
2022-11-29T08:42:18.881Z,81.66
2022-11-29T08:43:20.307Z,82.13
2022-11-29T08:44:21.822Z,81.79
2022-11-29T08:45:23.643Z,82.07
2022-11-29T08:46:45.080Z,81.74
2022-11-29T08:47:46.464Z,81.58
2022-11-29T08:48:48.343Z,81.89
2022-11-29T08:50:01.738Z,81.38
2022-11-29T08:51:05.127Z,81.45
2022-11-29T08:52:35.783Z,81.45
2022-11-29T08:53:43.490Z,81.74
2022-11-29T08:54:45.232Z,81.58
2022-11-29T08:55:46.980Z,81.71
2022-11-29T08:58:12.218Z,81.52
2022-11-29T08:59:13.618Z,81.68
2022-11-29T09:00:15.848Z,81.92
2022-11-29T09:01:19.197Z,81.45
2022-11-29T09:02:20.661Z,81.63
2022-11-29T09:03:40.807Z,81.93
2022-11-29T09:04:42.312Z,82.12
2022-11-29T09:05:43.942Z,81.81
2022-11-29T09:06:45.387Z,81.89
2022-11-29T09:07:46.996Z,81.52
2022-11-29T09:08:48.494Z,81.71
2022-11-29T09:09:50.047Z,81.76
2022-11-29T09:10:51.584Z,82.01
2022-11-29T09:11:53.020Z,82.06
2022-11-29T09:12:54.996Z,81.61
2022-11-29T09:13:59.356Z,81.55
2022-11-29T09:15:00.931Z,81.54
2022-11-29T09:16:07.730Z,81.45
2022-11-29T09:17:09.255Z,81.81
2022-11-29T09:18:10.786Z,81.61
2022-11-29T09:19:14.398Z,81.87
2022-11-29T09:20:19.206Z,81.99
2022-11-29T09:21:20.775Z,81.63
2022-11-29T09:22:22.248Z,81.87
2022-11-29T09:23:23.677Z,81.48
2022-11-29T09:24:25.286Z,81.34
2022-11-29T09:25:27.659Z,81.28
2022-11-29T09:26:32.036Z,81.36
2022-11-29T09:27:33.473Z,81.42
2022-11-29T09:28:35.462Z,81.32
2022-11-29T09:29:36.967Z,81.16
2022-11-29T09:30:38.459Z,81.71
2022-11-29T09:31:40.010Z,81.64
2022-11-29T09:32:41.507Z,81.98
2022-11-29T09:33:43.271Z,81.65
2022-11-29T09:34:44.977Z,81.91
2022-11-29T09:35:47.559Z,81.68
2022-11-29T09:36:49.068Z,82.18
2022-11-29T09:37:50.558Z,81.82
2022-11-29T09:38:52.042Z,81.67
2022-11-29T09:39:53.522Z,81.47
2022-11-29T09:40:57.622Z,81.54
2022-11-29T09:42:23.926Z,81.04
2022-11-29T09:43:43.206Z,80.47
2022-11-29T09:44:53.394Z,80.29
2022-11-29T09:46:22.212Z,80.75
2022-11-29T09:47:26.374Z,81.44
2022-11-29T09:48:40.482Z,81.52
2022-11-29T09:49:58.846Z,81.61
2022-11-29T09:51:27.220Z,82.02
2022-11-29T09:52:36.735Z,81.39
2022-11-29T09:53:58.238Z,82.31
2022-11-29T09:55:04.903Z,82.34
2022-11-29T09:56:19.261Z,82.55
2022-11-29T09:57:23.858Z,82.86
2022-11-29T09:58:31.281Z,82.49
2022-11-29T09:59:42.759Z,82.38
2022-11-29T10:00:49.438Z,81.91
2022-11-29T10:01:56.698Z,81.89
2022-11-29T10:03:09.777Z,82.44
2022-11-29T10:04:17.581Z,81.85
2022-11-29T10:05:28.518Z,82.34
2022-11-29T10:06:38.711Z,83.01
2022-11-29T10:07:56.639Z,82.27
2022-11-29T10:09:01.523Z,82.31
2022-11-29T10:10:09.233Z,81.90
2022-11-29T10:11:30.358Z,82.24
2022-11-29T10:12:37.869Z,82.44
2022-11-29T10:13:45.694Z,82.53
2022-11-29T10:14:57.949Z,82.67
2022-11-29T10:16:09.329Z,82.74
2022-11-29T10:17:26.895Z,82.85
2022-11-29T10:18:38.362Z,82.90
2022-11-29T10:19:47.475Z,83.37
2022-11-29T10:20:52.727Z,82.98
2022-11-29T10:22:00.792Z,82.60
2022-11-29T10:23:09.815Z,82.17
2022-11-29T10:24:17.804Z,81.95
2022-11-29T10:25:28.763Z,82.67
2022-11-29T10:26:35.035Z,82.52
2022-11-29T10:27:40.187Z,82.35
2022-11-29T10:28:50.289Z,82.26
2022-11-29T10:29:51.884Z,82.41
2022-11-29T10:30:55.608Z,82.05
2022-11-29T10:31:59.290Z,82.51
2022-11-29T10:33:00.934Z,82.62
2022-11-29T10:34:12.847Z,82.86
2022-11-29T10:35:18.042Z,82.49
2022-11-29T10:36:29.638Z,82.39
2022-11-29T10:37:32.861Z,82.21
2022-11-29T10:38:34.295Z,81.09
2022-11-29T10:39:42.317Z,81.58
2022-11-29T10:40:48.814Z,81.96
2022-11-29T10:41:55.007Z,81.57
2022-11-29T10:42:57.042Z,81.37
2022-11-29T10:44:00.085Z,81.80
2022-11-29T10:45:02.234Z,81.48
2022-11-29T10:46:05.170Z,81.55
2022-11-29T10:47:10.639Z,81.94
2022-11-29T10:48:22.021Z,82.17
2022-11-29T10:49:27.714Z,82.25
2022-11-29T10:50:31.980Z,82.06
2022-11-29T10:51:33.792Z,82.67
2022-11-29T10:52:35.595Z,81.30
2022-11-29T10:53:37.515Z,81.67
2022-11-29T10:54:42.414Z,81.40
2022-11-29T10:55:48.187Z,80.56
2022-11-29T10:56:49.868Z,81.09
2022-11-29T10:58:13.010Z,81.35
2022-11-29T10:59:29.593Z,81.26
2022-11-29T11:00:31.130Z,80.86
2022-11-29T11:01:36.976Z,81.30
2022-11-29T11:02:38.666Z,80.98
2022-11-29T11:04:00.737Z,81.11
2022-11-29T11:05:03.638Z,81.42
2022-11-29T11:06:08.454Z,81.03
2022-11-29T11:07:23.580Z,81.24
2022-11-29T11:08:26.572Z,81.20
2022-11-29T11:09:48.596Z,81.95
2022-11-29T11:11:01.165Z,81.93
2022-11-29T11:12:18.812Z,81.86
2022-11-29T11:13:25.748Z,81.49
2022-11-29T11:14:37.530Z,81.94
2022-11-29T11:15:39.048Z,81.79
2022-11-29T11:16:40.570Z,81.86
2022-11-29T11:17:55.795Z,81.78
2022-11-29T11:18:58.441Z,82.37
2022-11-29T11:20:04.416Z,82.18
2022-11-29T11:21:10.950Z,82.32
2022-11-29T11:22:22.070Z,82.09
2022-11-29T11:23:37.562Z,81.90
2022-11-29T11:24:44.838Z,82.49
2022-11-29T11:25:50.281Z,82.41
2022-11-29T11:26:51.852Z,82.64
2022-11-29T11:27:54.669Z,82.60
2022-11-29T11:28:59.573Z,83.04
2022-11-29T11:30:04.012Z,83.18
2022-11-29T11:31:08.819Z,83.36
2022-11-29T11:32:20.519Z,83.37
2022-11-29T11:33:26.900Z,82.86
2022-11-29T11:34:34.254Z,83.21
2022-11-29T11:35:37.555Z,83.27
2022-11-29T11:36:38.982Z,83.13
2022-11-29T11:37:40.451Z,83.37
2022-11-29T11:38:52.438Z,82.91
2022-11-29T11:39:57.304Z,82.71
2022-11-29T11:41:05.431Z,82.15
2022-11-29T11:42:31.067Z,82.98
2022-11-29T11:43:34.084Z,82.62
2022-11-29T11:44:47.520Z,83.11
2022-11-29T11:45:54.533Z,83.22
2022-11-29T11:46:56.558Z,83.41
2022-11-29T11:48:02.060Z,83.30
2022-11-29T11:49:23.914Z,82.97
2022-11-29T11:50:32.831Z,82.86
2022-11-29T11:51:34.298Z,83.25
2022-11-29T11:52:48.876Z,82.93
2022-11-29T11:53:57.323Z,83.05
2022-11-29T11:55:02.043Z,82.98
2022-11-29T11:56:12.974Z,83.26
2022-11-29T11:57:19.225Z,83.19
2022-11-29T11:58:27.551Z,83.49
2022-11-29T11:59:29.380Z,83.22
2022-11-29T12:01:04.361Z,83.27
2022-11-29T12:02:29.528Z,83.03
2022-11-29T12:03:39.556Z,83.29
2022-11-29T12:04:41.409Z,82.66
2022-11-29T12:05:46.237Z,82.74
2022-11-29T12:06:59.906Z,81.95
2022-11-29T12:08:08.502Z,82.51
2022-11-29T12:09:48.112Z,82.64
2022-11-29T12:10:54.221Z,82.09
2022-11-29T12:12:03.675Z,82.16
2022-11-29T12:13:05.238Z,81.81
2022-11-29T12:14:07.973Z,81.41
2022-11-29T12:15:31.728Z,81.60
2022-11-29T12:16:38.902Z,81.64
2022-11-29T12:17:51.555Z,81.29
2022-11-29T12:19:00.858Z,82.66
2022-11-29T12:20:26.232Z,82.19
2022-11-29T12:21:33.638Z,82.46
2022-11-29T12:22:47.879Z,81.91
2022-11-29T12:24:05.842Z,81.86
2022-11-29T12:25:15.270Z,82.31
2022-11-29T12:26:54.825Z,82.53
2022-11-29T12:27:41.962Z,82.09
2022-11-29T12:28:45.052Z,81.54
2022-11-29T12:29:46.582Z,82.26
2022-11-29T12:31:13.040Z,81.75
2022-11-29T12:32:25.064Z,81.48
2022-11-29T12:34:20.969Z,81.03
2022-11-29T12:35:44.732Z,81.76
2022-11-29T12:37:10.739Z,81.48
2022-11-29T12:39:09.151Z,81.88
2022-11-29T12:40:10.560Z,81.93
2022-11-29T12:41:53.805Z,82.79
2022-11-29T12:43:01.374Z,82.37
2022-11-29T12:44:15.645Z,82.85
2022-11-29T12:45:22.990Z,82.35
2022-11-29T12:46:28.119Z,82.38
2022-11-29T12:47:51.917Z,82.29
2022-11-29T12:49:17.668Z,82.99
2022-11-29T12:50:44.202Z,82.69
2022-11-29T12:52:06.254Z,82.55
2022-11-29T12:53:36.986Z,82.73
2022-11-29T12:54:38.379Z,82.76
2022-11-29T12:56:07.501Z,82.70
2022-11-29T12:57:22.940Z,82.27
2022-11-29T12:58:41.351Z,81.90
2022-11-29T13:00:18.205Z,82.12
2022-11-29T13:01:19.632Z,81.93
2022-11-29T13:02:52.280Z,82.30
2022-11-29T13:04:13.279Z,82.48
2022-11-29T13:05:22.620Z,82.18
2022-11-29T13:06:46.099Z,82.48
2022-11-29T13:08:09.891Z,82.52
2022-11-29T13:09:34.065Z,82.69
2022-11-29T13:10:38.562Z,81.93
2022-11-29T13:11:48.939Z,82.65
2022-11-29T13:13:13.002Z,82.78
2022-11-29T13:14:54.795Z,81.74
2022-11-29T13:16:31.453Z,82.39
2022-11-29T13:18:03.742Z,81.76
2022-11-29T13:19:17.294Z,82.49
2022-11-29T13:20:25.756Z,82.26
2022-11-29T13:21:46.413Z,82.23
2022-11-29T13:23:38.978Z,82.57
2022-11-29T13:24:50.802Z,82.25
2022-11-29T13:25:56.836Z,82.77
2022-11-29T13:27:03.628Z,82.09
2022-11-29T13:28:26.107Z,82.13
2022-11-29T13:29:28.788Z,82.35
2022-11-29T13:30:31.083Z,82.36
2022-11-29T13:31:33.248Z,82.23
2022-11-29T13:32:42.126Z,81.79
2022-11-29T13:34:17.562Z,82.06
2022-11-29T13:35:30.837Z,82.71
2022-11-29T13:37:01.508Z,82.66
2022-11-29T13:38:35.827Z,81.98
2022-11-29T13:40:00.429Z,82.67
2022-11-29T13:41:12.792Z,82.75
2022-11-29T13:42:40.062Z,82.64
2022-11-29T13:43:51.206Z,82.09
2022-11-29T13:45:05.904Z,82.82
2022-11-29T13:46:23.695Z,82.60
2022-11-29T13:47:25.247Z,82.66
2022-11-29T13:48:29.862Z,82.00
2022-11-29T13:49:51.931Z,82.38
2022-11-29T13:50:53.652Z,82.54
2022-11-29T13:52:06.342Z,82.14
2022-11-29T13:53:48.252Z,82.53
2022-11-29T13:55:28.611Z,82.63
2022-11-29T13:56:42.591Z,82.66
2022-11-29T13:58:18.890Z,82.69
2022-11-29T13:59:29.726Z,82.62
2022-11-29T14:00:47.758Z,82.25
2022-11-29T14:01:53.834Z,81.91
2022-11-29T14:02:57.698Z,82.40
2022-11-29T14:04:23.602Z,81.88
2022-11-29T14:05:28.218Z,82.55
2022-11-29T14:06:37.694Z,82.46
2022-11-29T14:08:54.648Z,82.66
2022-11-29T14:10:29.068Z,82.66
2022-11-29T14:11:44.966Z,82.09
2022-11-29T14:12:53.603Z,82.07
2022-11-29T14:14:08.881Z,81.88
2022-11-29T14:15:19.429Z,81.90
2022-11-29T14:16:32.229Z,82.96
2022-11-29T14:17:48.807Z,82.55
2022-11-29T14:19:10.361Z,82.75
2022-11-29T14:20:24.888Z,82.94
2022-11-29T14:21:26.322Z,83.01
2022-11-29T14:22:28.345Z,82.52
2022-11-29T14:23:44.265Z,82.77
2022-11-29T14:25:49.592Z,83.89
2022-11-29T14:26:43.318Z,83.89
2022-11-29T14:27:45.909Z,83.68
2022-11-29T14:28:47.449Z,83.48
2022-11-29T14:29:55.062Z,83.41
2022-11-29T14:30:58.637Z,83.43
2022-11-29T14:32:00.246Z,82.46
2022-11-29T14:33:20.482Z,83.04
2022-11-29T14:34:32.178Z,83.20
2022-11-29T14:36:03.208Z,82.45
2022-11-29T14:37:19.569Z,83.32
2022-11-29T14:38:46.181Z,82.64
2022-11-29T14:39:51.921Z,82.60
2022-11-29T14:41:27.465Z,82.90
2022-11-29T14:42:29.852Z,82.78
2022-11-29T14:43:34.767Z,82.33
2022-11-29T14:44:44.607Z,82.41
2022-11-29T14:45:46.309Z,82.99
2022-11-29T14:46:58.376Z,82.43
2022-11-29T14:48:02.110Z,82.06
2022-11-29T14:49:04.557Z,82.99
2022-11-29T14:50:10.407Z,82.60
2022-11-29T14:51:13.371Z,82.70
2022-11-29T14:52:14.762Z,82.19
2022-11-29T14:53:30.232Z,82.46
2022-11-29T14:54:33.173Z,82.11
2022-11-29T14:55:36.515Z,82.45
2022-11-29T14:56:42.707Z,82.53
2022-11-29T14:57:47.185Z,82.61
2022-11-29T14:59:08.720Z,82.58
2022-11-29T15:00:12.005Z,83.09
2022-11-29T15:01:18.836Z,82.98
2022-11-29T15:02:35.358Z,83.86
2022-11-29T15:03:44.982Z,83.65
2022-11-29T15:04:49.716Z,83.43
2022-11-29T15:05:58.235Z,83.13
2022-11-29T15:07:01.318Z,83.87
2022-11-29T15:08:15.481Z,83.98
2022-11-29T15:09:22.582Z,83.95
2022-11-29T15:10:29.689Z,84.58
2022-11-29T15:11:49.471Z,84.02
2022-11-29T15:12:52.168Z,84.26
2022-11-29T15:14:05.199Z,84.11
2022-11-29T15:15:27.963Z,84.43
2022-11-29T15:16:35.446Z,83.72
2022-11-29T15:17:55.447Z,84.37
2022-11-29T15:19:08.909Z,84.65
2022-11-29T15:20:25.508Z,84.29
2022-11-29T15:22:00.984Z,83.84
2022-11-29T15:23:06.314Z,84.07
2022-11-29T15:24:16.471Z,83.88
2022-11-29T15:25:23.896Z,84.17
2022-11-29T15:26:25.376Z,83.73
2022-11-29T15:27:27.233Z,83.92
2022-11-29T15:28:29.713Z,83.82